Antlers, Colorado
Current Conditions -  °F | °C
As of 9:53 PM on Friday 24 Oct 2014 (Local Time) from KEEO Reporting Station
Clear Clear  
Wind Chill: 42°   Ceiling: Unl
Heat Index: 44°   Visibility: 10mi
Dew Point: 30°   Wind: 5mph
Humidity: 58%   Direction: 40°NE
Pressure: 30.32"   Gusts: NA
Location:  39.7934°N, 108.135°W
Report Text: KEEO 250353Z AUTO 04004KT 10SM CLR 07/M01 A3032 RMK AO2 SLP229 T00671011
Loading
Personal Weather Stations






























Interactive Weather Map New forecast layout! Learn more

10-Day Weather Forecast

Advertisements
Track Severe Weather on mobile